Time;durP1;ratioP1;P1;durP2;ratioP2;P2;SDS_P1;SDS_P2;PMS_P1;PMS_P2;Temp;Humidity;BMP_temperature;BMP_pressure;BME280_temperature;BME280_humidity;BME280_pressure;Samples;Min_cycle;Max_cycle;Signal;HPM_P1;HPM_P2
2022/04/14 00:01:41;;;;;;;22.85;13.50;;;;;;;;;;5043339;28;20049;-73
2022/04/14 00:04:10;;;;;;;25.60;15.38;;;;;;;;;;5042603;28;20057;-73
2022/04/14 00:06:37;;;;;;;28.77;16.15;;;;;;;;;;5051008;28;20103;-73
2022/04/14 00:09:04;;;;;;;26.30;15.82;;;;;;;;;;5046761;28;20057;-73
2022/04/14 00:11:32;;;;;;;24.13;15.18;;;;;;;;;;5043820;28;20061;-73
2022/04/14 00:13:59;;;;;;;25.88;16.20;;;;;;;;;;5042360;28;20061;-73
2022/04/14 00:16:27;;;;;;;26.67;16.33;;;;;;;;;;5044080;28;20053;-73
2022/04/14 00:18:54;;;;;;;29.90;17.15;;;;;;;;;;5044778;28;20083;-73
2022/04/14 00:21:23;;;;;;;25.70;17.05;;;;;;;;;;5039042;28;20512;-73
2022/04/14 00:23:50;;;;;;;28.48;16.98;;;;;;;;;;5046736;28;20061;-73
2022/04/14 00:26:17;;;;;;;25.58;15.75;;;;;;;;;;5042310;28;20061;-73
2022/04/14 00:28:46;;;;;;;27.90;17.02;;;;;;;;;;5040160;28;20115;-73
2022/04/14 00:31:13;;;;;;;29.88;17.33;;;;;;;;;;5034336;28;20547;-73
2022/04/14 00:33:40;;;;;;;32.38;18.67;;;;;;;;;;5042091;28;20563;-73
2022/04/14 00:36:07;;;;;;;31.65;17.95;;;;;;;;;;5039811;28;20057;-73
2022/04/14 00:38:36;;;;;;;27.40;17.42;;;;;;;;;;5042187;28;20045;-73
2022/04/14 00:41:03;;;;;;;30.52;18.95;;;;;;;;;;5033160;28;20068;-73
2022/04/14 00:43:31;;;;;;;32.90;19.10;;;;;;;;;;5040702;28;20048;-73
2022/04/14 00:45:59;;;;;;;34.20;20.15;;;;;;;;;;5040873;28;20359;-73
2022/04/14 00:48:26;;;;;;;33.05;20.20;;;;;;;;;;5036819;28;20063;-73
2022/04/14 00:50:54;;;;;;;32.50;18.90;;;;;;;;;;5043059;28;20057;-73
2022/04/14 00:53:22;;;;;;;37.03;21.48;;;;;;;;;;5046376;28;20057;-73
2022/04/14 00:55:50;;;;;;;31.95;20.40;;;;;;;;;;5045232;28;20593;-73
2022/04/14 00:58:18;;;;;;;35.42;20.25;;;;;;;;;;5034801;28;20057;-73
2022/04/14 01:00:45;;;;;;;38.50;22.08;;;;;;;;;;5040979;28;20110;-73
2022/04/14 01:03:12;;;;;;;30.55;19.98;;;;;;;;;;5040923;28;20061;-73
2022/04/14 01:05:40;;;;;;;35.08;21.33;;;;;;;;;;5041219;28;20474;-73
2022/04/14 01:08:08;;;;;;;32.85;21.05;;;;;;;;;;5042927;28;20453;-73
2022/04/14 01:10:36;;;;;;;35.70;21.77;;;;;;;;;;5038191;28;20056;-73
2022/04/14 01:13:05;;;;;;;36.33;21.60;;;;;;;;;;5044986;28;20514;-73
2022/04/14 01:15:32;;;;;;;38.72;22.42;;;;;;;;;;5041207;28;20057;-73
2022/04/14 01:18:00;;;;;;;36.72;22.63;;;;;;;;;;5037943;28;20046;-73
2022/04/14 01:20:27;;;;;;;41.15;22.48;;;;;;;;;;5032134;28;20063;-73
2022/04/14 01:22:57;;;;;;;43.78;23.00;;;;;;;;;;5039776;28;20044;-73
2022/04/14 01:25:26;;;;;;;44.30;24.45;;;;;;;;;;5034475;28;20049;-73
2022/04/14 01:27:53;;;;;;;41.25;24.63;;;;;;;;;;5039080;28;20060;-73
2022/04/14 01:30:21;;;;;;;41.83;24.25;;;;;;;;;;5039816;28;20057;-73
2022/04/14 01:32:48;;;;;;;41.50;25.00;;;;;;;;;;5058453;28;20053;-73
2022/04/14 01:35:16;;;;;;;38.33;24.25;;;;;;;;;;5044285;28;20530;-73
2022/04/14 01:37:43;;;;;;;45.35;24.85;;;;;;;;;;5038599;28;20207;-73
2022/04/14 01:40:10;;;;;;;42.83;24.77;;;;;;;;;;5037558;28;20045;-73
2022/04/14 01:42:39;;;;;;;46.22;25.40;;;;;;;;;;5042623;28;20135;-73
2022/04/14 01:45:06;;;;;;;46.75;25.10;;;;;;;;;;5037612;28;20045;-73
2022/04/14 01:47:34;;;;;;;37.53;24.15;;;;;;;;;;5039127;28;20057;-73
2022/04/14 01:50:01;;;;;;;39.55;25.65;;;;;;;;;;5039667;28;20119;-73
2022/04/14 01:52:28;;;;;;;43.00;26.80;;;;;;;;;;5041702;28;20053;-73
2022/04/14 01:54:55;;;;;;;42.47;26.50;;;;;;;;;;5040118;28;20050;-73
2022/04/14 01:57:22;;;;;;;47.17;26.48;;;;;;;;;;5038262;28;20099;-73
2022/04/14 01:59:51;;;;;;;44.47;27.35;;;;;;;;;;5044419;28;20118;-73
2022/04/14 02:02:18;;;;;;;40.47;25.17;;;;;;;;;;5041191;28;20589;-73
2022/04/14 02:04:46;;;;;;;46.17;27.27;;;;;;;;;;5041594;28;20106;-73
2022/04/14 02:07:14;;;;;;;44.25;26.17;;;;;;;;;;5038805;28;20543;-73
2022/04/14 02:09:41;;;;;;;50.08;27.40;;;;;;;;;;5045517;28;20060;-73
2022/04/14 02:12:09;;;;;;;49.58;28.10;;;;;;;;;;5036482;28;20053;-73
2022/04/14 02:14:37;;;;;;;49.38;28.85;;;;;;;;;;5039149;28;20722;-73
2022/04/14 02:17:05;;;;;;;46.25;28.52;;;;;;;;;;5044232;28;20076;-73
2022/04/14 02:19:33;;;;;;;59.40;30.48;;;;;;;;;;5038103;28;20049;-73
2022/04/14 02:22:00;;;;;;;48.65;29.00;;;;;;;;;;5042428;28;20061;-73
2022/04/14 02:24:27;;;;;;;54.65;30.85;;;;;;;;;;5038601;28;20393;-73
2022/04/14 02:26:55;;;;;;;52.33;29.02;;;;;;;;;;5041537;28;20103;-74
2022/04/14 02:29:22;;;;;;;52.63;30.02;;;;;;;;;;5039134;28;20110;-74
2022/04/14 02:31:51;;;;;;;55.78;30.77;;;;;;;;;;5037432;28;20470;-74
2022/04/14 02:34:20;;;;;;;47.13;28.63;;;;;;;;;;5034074;28;20135;-74
2022/04/14 02:36:47;;;;;;;50.28;30.45;;;;;;;;;;5043604;28;20053;-73
2022/04/14 02:39:14;;;;;;;49.80;29.17;;;;;;;;;;5042561;28;20111;-73
2022/04/14 02:41:42;;;;;;;57.63;29.67;;;;;;;;;;5041303;28;20134;-73
2022/04/14 02:44:09;;;;;;;52.38;30.58;;;;;;;;;;5044020;28;20056;-73
2022/04/14 02:46:36;;;;;;;49.47;29.25;;;;;;;;;;5035757;28;20107;-73
2022/04/14 02:49:03;;;;;;;45.92;28.13;;;;;;;;;;5037263;28;20061;-73
2022/04/14 02:51:32;;;;;;;50.58;28.83;;;;;;;;;;5038710;28;20075;-73
2022/04/14 02:53:59;;;;;;;51.05;29.60;;;;;;;;;;5042194;28;20078;-73
2022/04/14 02:56:26;;;;;;;45.45;28.17;;;;;;;;;;5044475;28;20585;-73
2022/04/14 02:58:53;;;;;;;56.85;29.33;;;;;;;;;;5037086;28;20122;-73
2022/04/14 03:01:20;;;;;;;51.35;28.77;;;;;;;;;;5039904;28;20048;-73
2022/04/14 03:03:48;;;;;;;56.35;29.58;;;;;;;;;;5033366;28;20053;-73
2022/04/14 03:06:15;;;;;;;52.38;30.10;;;;;;;;;;5043261;28;20465;-73
2022/04/14 03:08:43;;;;;;;60.25;33.05;;;;;;;;;;5043987;28;20110;-73
2022/04/14 03:11:12;;;;;;;54.70;29.58;;;;;;;;;;5044112;28;20056;-73
2022/04/14 03:13:40;;;;;;;54.55;31.77;;;;;;;;;;5039226;28;20045;-73
2022/04/14 03:16:07;;;;;;;58.10;33.28;;;;;;;;;;5043257;28;20055;-73
2022/04/14 03:18:34;;;;;;;66.28;32.83;;;;;;;;;;5040017;28;20048;-73
2022/04/14 03:21:01;;;;;;;64.90;32.70;;;;;;;;;;5045371;28;20640;-73
2022/04/14 03:23:29;;;;;;;85.03;40.00;;;;;;;;;;5043220;28;20136;-73
2022/04/14 03:25:57;;;;;;;61.20;34.83;;;;;;;;;;5041359;28;20439;-73
2022/04/14 03:28:24;;;;;;;55.42;32.10;;;;;;;;;;5047439;28;20060;-73
2022/04/14 03:30:52;;;;;;;51.20;30.55;;;;;;;;;;5043741;28;20380;-73
2022/04/14 03:33:19;;;;;;;76.35;37.83;;;;;;;;;;5046843;28;20391;-73
2022/04/14 03:35:46;;;;;;;62.03;34.80;;;;;;;;;;5042754;28;20057;-73
2022/04/14 03:38:13;;;;;;;62.13;32.88;;;;;;;;;;5036801;28;20049;-73
2022/04/14 03:40:41;;;;;;;60.63;32.92;;;;;;;;;;5039112;28;20052;-73
2022/04/14 03:43:09;;;;;;;54.38;31.48;;;;;;;;;;5046590;28;20477;-74
2022/04/14 03:45:36;;;;;;;61.33;33.40;;;;;;;;;;5037557;28;20053;-73
2022/04/14 03:48:04;;;;;;;60.10;35.30;;;;;;;;;;5041099;28;20084;-73
2022/04/14 03:50:31;;;;;;;54.40;31.80;;;;;;;;;;5044700;28;20583;-73
2022/04/14 03:52:58;;;;;;;56.42;33.22;;;;;;;;;;5040979;28;20053;-73
2022/04/14 03:55:25;;;;;;;52.53;31.38;;;;;;;;;;5039146;28;20056;-73
2022/04/14 03:57:52;;;;;;;73.82;37.08;;;;;;;;;;5043595;28;20052;-73
2022/04/14 04:00:21;;;;;;;64.07;34.97;;;;;;;;;;5042400;28;20053;-73
2022/04/14 04:02:48;;;;;;;62.72;34.15;;;;;;;;;;5041719;28;20095;-73
2022/04/14 04:05:16;;;;;;;46.53;30.58;;;;;;;;;;5046606;28;20668;-73
2022/04/14 04:07:43;;;;;;;61.88;32.17;;;;;;;;;;5037922;28;20050;-73
2022/04/14 04:10:10;;;;;;;54.20;32.00;;;;;;;;;;5047097;28;20056;-73
2022/04/14 04:12:37;;;;;;;56.58;31.77;;;;;;;;;;5050657;28;20099;-73
2022/04/14 04:15:05;;;;;;;61.15;29.80;;;;;;;;;;5042690;28;20102;-73
2022/04/14 04:17:33;;;;;;;77.47;29.88;;;;;;;;;;5047438;28;20056;-73
2022/04/14 04:20:01;;;;;;;79.25;32.08;;;;;;;;;;5054730;28;20838;-73
2022/04/14 04:22:28;;;;;;;84.40;29.58;;;;;;;;;;5052546;28;20052;-73
2022/04/14 04:24:57;;;;;;;59.00;29.40;;;;;;;;;;5045196;28;20055;-73
2022/04/14 04:27:24;;;;;;;70.90;30.30;;;;;;;;;;5038830;28;20059;-73
2022/04/14 04:29:51;;;;;;;57.33;27.77;;;;;;;;;;5046557;28;20060;-73
2022/04/14 04:32:19;;;;;;;62.47;29.65;;;;;;;;;;5052594;28;20123;-73
2022/04/14 04:34:47;;;;;;;52.45;28.92;;;;;;;;;;5044201;28;20106;-73
2022/04/14 04:37:15;;;;;;;51.25;29.30;;;;;;;;;;5035346;28;20053;-73
2022/04/14 04:39:42;;;;;;;41.95;27.67;;;;;;;;;;5043128;28;20084;-73
2022/04/14 04:42:09;;;;;;;46.33;28.52;;;;;;;;;;5055520;28;20060;-73
2022/04/14 04:44:37;;;;;;;59.60;30.02;;;;;;;;;;5038242;28;20048;-73
2022/04/14 04:47:04;;;;;;;56.80;28.65;;;;;;;;;;5037582;28;20092;-73
2022/04/14 04:49:31;;;;;;;91.88;30.20;;;;;;;;;;5038954;28;20558;-73
2022/04/14 04:52:00;;;;;;;59.22;29.25;;;;;;;;;;5034895;28;20057;-73
2022/04/14 04:54:27;;;;;;;52.78;28.58;;;;;;;;;;5039017;28;20045;-73
2022/04/14 04:56:54;;;;;;;59.65;30.55;;;;;;;;;;5039861;28;20098;-74
2022/04/14 04:59:22;;;;;;;50.47;28.15;;;;;;;;;;5038220;28;20111;-73
2022/04/14 05:01:49;;;;;;;67.43;32.30;;;;;;;;;;5034989;28;20052;-73
2022/04/14 05:04:16;;;;;;;64.07;32.22;;;;;;;;;;5040094;28;20044;-73
2022/04/14 05:06:43;;;;;;;49.83;30.75;;;;;;;;;;5033390;28;20111;-73
2022/04/14 05:09:12;;;;;;;60.13;33.42;;;;;;;;;;5038836;28;20113;-73
2022/04/14 05:11:39;;;;;;;53.17;33.22;;;;;;;;;;5038081;28;20064;-73
2022/04/14 05:14:08;;;;;;;59.20;35.42;;;;;;;;;;5035794;28;20041;-73
2022/04/14 05:16:35;;;;;;;67.55;36.42;;;;;;;;;;5038986;28;20055;-73
2022/04/14 05:19:02;;;;;;;59.53;33.90;;;;;;;;;;5036980;28;20130;-74
2022/04/14 05:21:29;;;;;;;58.72;35.60;;;;;;;;;;5037817;28;20079;-73
2022/04/14 05:23:56;;;;;;;63.70;38.05;;;;;;;;;;5033892;28;20048;-74
2022/04/14 05:26:25;;;;;;;72.25;39.50;;;;;;;;;;5035934;28;20064;-74
2022/04/14 05:28:52;;;;;;;67.43;37.15;;;;;;;;;;5041607;28;20053;-73
2022/04/14 05:31:20;;;;;;;60.90;36.40;;;;;;;;;;5036878;28;20408;-74
2022/04/14 05:33:48;;;;;;;64.20;34.53;;;;;;;;;;5038446;28;20611;-74
2022/04/14 05:36:15;;;;;;;57.65;34.90;;;;;;;;;;5041821;28;20075;-74
2022/04/14 05:38:42;;;;;;;54.58;33.03;;;;;;;;;;5039532;28;20053;-73
2022/04/14 05:41:09;;;;;;;61.80;35.08;;;;;;;;;;5037443;28;20462;-73
2022/04/14 05:43:38;;;;;;;58.25;32.85;;;;;;;;;;5042138;28;20126;-73
2022/04/14 05:46:05;;;;;;;55.53;33.28;;;;;;;;;;5037904;28;20491;-74
2022/04/14 05:48:32;;;;;;;53.90;33.00;;;;;;;;;;5042386;28;20049;-74
2022/04/14 05:51:00;;;;;;;52.40;32.67;;;;;;;;;;5049371;28;20052;-74
2022/04/14 05:53:28;;;;;;;61.42;35.70;;;;;;;;;;5044437;28;20128;-74
2022/04/14 05:55:55;;;;;;;67.72;35.65;;;;;;;;;;5044679;28;20048;-74
2022/04/14 05:58:22;;;;;;;54.38;33.13;;;;;;;;;;5042196;28;20612;-74
2022/04/14 06:00:51;;;;;;;60.60;34.75;;;;;;;;;;5037464;28;20432;-74
2022/04/14 06:03:18;;;;;;;56.50;33.40;;;;;;;;;;5037294;28;21450;-74
2022/04/14 06:05:46;;;;;;;58.47;35.22;;;;;;;;;;5040383;28;20060;-74
2022/04/14 06:08:13;;;;;;;51.72;32.22;;;;;;;;;;5041444;28;20119;-74
2022/04/14 06:10:40;;;;;;;55.17;33.80;;;;;;;;;;5043382;28;20048;-74
2022/04/14 06:13:08;;;;;;;59.95;36.47;;;;;;;;;;5045483;28;20099;-74
2022/04/14 06:15:35;;;;;;;56.13;34.92;;;;;;;;;;5043847;28;20048;-74
2022/04/14 06:18:04;;;;;;;63.35;36.28;;;;;;;;;;5038272;28;20052;-74
2022/04/14 06:20:31;;;;;;;61.55;35.85;;;;;;;;;;5036182;28;20066;-74
2022/04/14 06:22:58;;;;;;;60.88;35.17;;;;;;;;;;5038160;28;20065;-74
2022/04/14 06:25:26;;;;;;;67.60;38.92;;;;;;;;;;5042577;28;20045;-74
2022/04/14 06:27:55;;;;;;;67.78;38.10;;;;;;;;;;5035961;28;20065;-74
2022/04/14 06:30:22;;;;;;;75.03;41.50;;;;;;;;;;5036830;28;20088;-74
2022/04/14 06:32:56;;;;;;;70.22;39.38;;;;;;;;;;5039006;28;20060;-74
2022/04/14 06:35:25;;;;;;;65.32;37.47;;;;;;;;;;5038711;28;20041;-74
2022/04/14 06:37:52;;;;;;;63.30;38.95;;;;;;;;;;5040002;28;20144;-74
2022/04/14 06:40:20;;;;;;;63.88;36.40;;;;;;;;;;5039032;28;20049;-74
2022/04/14 06:42:47;;;;;;;66.85;37.28;;;;;;;;;;5033182;28;20049;-74
2022/04/14 06:45:14;;;;;;;70.35;38.13;;;;;;;;;;5035419;28;20041;-74
2022/04/14 06:47:42;;;;;;;63.25;34.35;;;;;;;;;;5033414;28;20115;-74
2022/04/14 06:50:09;;;;;;;60.58;32.92;;;;;;;;;;5041394;28;20057;-74
2022/04/14 06:52:39;;;;;;;54.03;32.03;;;;;;;;;;5043619;28;20060;-74
2022/04/14 06:55:07;;;;;;;60.22;32.58;;;;;;;;;;5041695;28;20045;-74
2022/04/14 06:57:35;;;;;;;57.63;31.75;;;;;;;;;;5042116;28;20103;-73
2022/04/14 07:00:02;;;;;;;52.97;30.27;;;;;;;;;;5045192;28;20057;-75
2022/04/14 07:02:31;;;;;;;54.22;28.45;;;;;;;;;;5039314;28;20061;-74
2022/04/14 07:04:59;;;;;;;50.67;29.38;;;;;;;;;;5044546;28;20586;-74
2022/04/14 07:07:26;;;;;;;47.78;26.52;;;;;;;;;;5037160;28;20059;-74
2022/04/14 07:09:55;;;;;;;44.08;26.38;;;;;;;;;;5035825;28;20048;-75
2022/04/14 07:12:22;;;;;;;50.85;25.95;;;;;;;;;;5046935;28;20107;-74
2022/04/14 07:14:49;;;;;;;43.00;25.05;;;;;;;;;;5040015;28;20049;-74
2022/04/14 07:17:20;;;;;;;43.30;23.05;;;;;;;;;;5044798;28;20395;-74
2022/04/14 07:19:47;;;;;;;39.95;22.08;;;;;;;;;;5040503;28;20131;-74
2022/04/14 07:22:17;;;;;;;41.75;22.20;;;;;;;;;;5044841;28;20061;-74
2022/04/14 07:24:44;;;;;;;34.80;21.30;;;;;;;;;;5036503;28;20050;-74
2022/04/14 07:27:13;;;;;;;33.47;20.35;;;;;;;;;;5040306;28;20111;-74
2022/04/14 07:29:40;;;;;;;33.00;20.73;;;;;;;;;;5045498;28;20056;-74
2022/04/14 07:32:07;;;;;;;34.78;19.80;;;;;;;;;;5044602;28;20097;-72
2022/04/14 07:34:35;;;;;;;30.42;19.63;;;;;;;;;;5039186;28;20492;-72
2022/04/14 07:37:02;;;;;;;33.28;20.02;;;;;;;;;;5048388;28;20091;-72
2022/04/14 07:39:29;;;;;;;29.35;18.75;;;;;;;;;;5041900;28;20225;-72
2022/04/14 07:41:57;;;;;;;32.15;18.45;;;;;;;;;;5044216;28;20053;-72
2022/04/14 07:44:25;;;;;;;29.17;17.83;;;;;;;;;;5044137;28;20766;-72
2022/04/14 07:46:52;;;;;;;31.40;17.25;;;;;;;;;;5047134;28;20048;-72
2022/04/14 07:49:20;;;;;;;26.00;16.02;;;;;;;;;;5042081;28;20053;-72
2022/04/14 07:51:47;;;;;;;21.63;15.57;;;;;;;;;;5045898;28;20076;-72
2022/04/14 07:54:14;;;;;;;22.40;14.82;;;;;;;;;;5043023;28;20045;-71
2022/04/14 07:56:41;;;;;;;23.48;15.13;;;;;;;;;;5046561;28;20053;-72
2022/04/14 07:59:09;;;;;;;27.05;15.57;;;;;;;;;;5044616;28;20479;-72
2022/04/14 08:01:38;;;;;;;26.42;15.48;;;;;;;;;;5041617;28;20504;-72
2022/04/14 08:04:05;;;;;;;24.08;15.35;;;;;;;;;;5048799;28;20057;-73
2022/04/14 08:06:32;;;;;;;21.45;13.73;;;;;;;;;;5040531;28;20130;-74
2022/04/14 08:09:00;;;;;;;21.95;14.73;;;;;;;;;;5041709;28;20098;-74
2022/04/14 08:11:27;;;;;;;22.77;15.10;;;;;;;;;;5035373;28;20128;-74
2022/04/14 08:13:54;;;;;;;22.80;12.05;;;;;;;;;;5040348;28;20057;-74
2022/04/14 08:16:21;;;;;;;18.42;11.70;;;;;;;;;;5040857;28;20068;-74
2022/04/14 08:18:50;;;;;;;18.70;11.93;;;;;;;;;;5040759;28;20061;-74
2022/04/14 08:21:17;;;;;;;19.48;12.60;;;;;;;;;;5032278;28;20119;-74
2022/04/14 08:23:44;;;;;;;22.30;12.27;;;;;;;;;;5045050;28;20056;-72
2022/04/14 08:26:12;;;;;;;18.33;11.82;;;;;;;;;;5042166;28;20049;-71
2022/04/14 08:28:41;;;;;;;24.48;12.70;;;;;;;;;;5045794;28;20425;-71
2022/04/14 08:31:09;;;;;;;20.38;14.48;;;;;;;;;;5042356;28;20052;-72
2022/04/14 08:33:36;;;;;;;18.52;12.07;;;;;;;;;;5044463;28;20450;-75
2022/04/14 08:36:05;;;;;;;21.05;10.82;;;;;;;;;;5045443;28;20052;-74
2022/04/14 08:38:32;;;;;;;15.30;9.68;;;;;;;;;;5041369;28;20045;-74
2022/04/14 08:41:03;;;;;;;14.38;8.75;;;;;;;;;;5044965;28;20399;-74
2022/04/14 08:43:33;;;;;;;12.15;7.93;;;;;;;;;;5044454;28;21318;-74
2022/04/14 08:46:01;;;;;;;15.88;9.27;;;;;;;;;;5049251;28;20053;-74
2022/04/14 08:48:29;;;;;;;13.25;7.20;;;;;;;;;;5037578;28;20056;-74
2022/04/14 08:50:56;;;;;;;12.93;7.50;;;;;;;;;;5038181;28;20504;-74
2022/04/14 08:53:27;;;;;;;15.63;8.27;;;;;;;;;;5037198;28;20823;-74
2022/04/14 08:55:56;;;;;;;17.00;6.95;;;;;;;;;;5043761;28;20060;-74
2022/04/14 08:58:26;;;;;;;13.48;6.78;;;;;;;;;;5034540;28;20053;-74
2022/04/14 09:00:55;;;;;;;10.98;6.35;;;;;;;;;;5043075;28;20045;-74
2022/04/14 09:03:25;;;;;;;13.93;7.38;;;;;;;;;;5043625;28;20147;-74
2022/04/14 09:05:52;;;;;;;13.65;7.97;;;;;;;;;;5043220;28;20059;-74
2022/04/14 09:08:20;;;;;;;12.77;8.25;;;;;;;;;;5043731;28;20140;-74
2022/04/14 09:10:48;;;;;;;16.02;10.07;;;;;;;;;;5037476;28;20153;-74
2022/04/14 09:13:16;;;;;;;18.08;10.70;;;;;;;;;;5042823;28;20053;-74
2022/04/14 09:15:43;;;;;;;16.27;10.77;;;;;;;;;;5041874;28;20091;-74
2022/04/14 09:18:10;;;;;;;16.50;10.70;;;;;;;;;;5043252;28;20049;-74
2022/04/14 09:20:38;;;;;;;17.92;9.65;;;;;;;;;;5037087;28;20458;-74
2022/04/14 09:23:12;;;;;;;16.42;10.20;;;;;;;;;;5035808;28;20065;-74
2022/04/14 09:25:40;;;;;;;16.63;10.00;;;;;;;;;;5036352;28;20049;-74
2022/04/14 09:28:12;;;;;;;17.02;9.88;;;;;;;;;;5043254;28;20060;-74
2022/04/14 09:30:39;;;;;;;15.88;9.32;;;;;;;;;;5043402;28;20061;-74
2022/04/14 09:33:07;;;;;;;14.95;9.32;;;;;;;;;;5036989;28;20059;-74
2022/04/14 09:35:34;;;;;;;13.73;8.57;;;;;;;;;;5042474;28;20049;-74
2022/04/14 09:38:02;;;;;;;13.73;9.57;;;;;;;;;;5039227;28;20075;-74
2022/04/14 09:40:30;;;;;;;18.92;10.25;;;;;;;;;;5034844;28;20394;-74
2022/04/14 09:42:57;;;;;;;16.60;9.55;;;;;;;;;;5041583;28;20067;-74
2022/04/14 09:45:26;;;;;;;15.95;8.55;;;;;;;;;;5033404;28;20062;-74
2022/04/14 09:47:54;;;;;;;15.32;7.97;;;;;;;;;;5034418;28;20106;-74
2022/04/14 09:50:25;;;;;;;11.10;6.55;;;;;;;;;;5035399;28;20053;-74
2022/04/14 09:52:59;;;;;;;12.55;7.03;;;;;;;;;;5032825;28;20064;-74
2022/04/14 09:55:26;;;;;;;11.50;6.13;;;;;;;;;;5040295;28;20041;-74
2022/04/14 09:58:06;;;;;;;10.35;6.38;;;;;;;;;;5040531;28;20049;-74
2022/04/14 10:00:39;;;;;;;12.20;5.97;;;;;;;;;;5039619;28;20122;-74
2022/04/14 10:03:10;;;;;;;12.43;6.07;;;;;;;;;;5033321;28;20064;-74
2022/04/14 10:05:37;;;;;;;12.30;6.68;;;;;;;;;;5044264;28;20045;-74
2022/04/14 10:08:07;;;;;;;10.90;6.40;;;;;;;;;;5035949;28;20053;-74
2022/04/14 10:10:34;;;;;;;14.48;7.78;;;;;;;;;;5044735;28;20044;-74
2022/04/14 10:13:06;;;;;;;14.27;7.90;;;;;;;;;;5036936;28;20045;-74
2022/04/14 10:15:35;;;;;;;11.77;7.50;;;;;;;;;;5041886;28;20156;-74
2022/04/14 10:18:05;;;;;;;14.23;8.02;;;;;;;;;;5041894;28;20107;-75
2022/04/14 10:20:32;;;;;;;14.00;7.85;;;;;;;;;;5038027;28;20041;-75
2022/04/14 10:23:00;;;;;;;12.48;6.85;;;;;;;;;;5040782;28;20068;-75
2022/04/14 10:25:28;;;;;;;12.55;7.50;;;;;;;;;;5031797;28;20053;-74
2022/04/14 10:27:57;;;;;;;14.13;8.73;;;;;;;;;;5031394;28;20081;-74
2022/04/14 10:30:25;;;;;;;12.10;7.53;;;;;;;;;;5037738;28;20143;-74
2022/04/14 10:32:55;;;;;;;15.73;8.90;;;;;;;;;;5032258;28;20053;-74
2022/04/14 10:35:24;;;;;;;17.90;8.35;;;;;;;;;;5039221;28;20510;-74
2022/04/14 10:37:54;;;;;;;12.32;6.35;;;;;;;;;;5033432;28;20135;-74
2022/04/14 10:40:24;;;;;;;12.63;6.65;;;;;;;;;;5036159;28;20045;-74
2022/04/14 10:42:53;;;;;;;9.18;5.32;;;;;;;;;;5037295;28;20052;-75
2022/04/14 10:45:23;;;;;;;8.63;4.93;;;;;;;;;;5036463;28;20049;-74
2022/04/14 10:47:57;;;;;;;7.72;4.30;;;;;;;;;;5036167;28;20163;-72
2022/04/14 10:50:26;;;;;;;12.35;4.93;;;;;;;;;;5034931;28;20068;-73
2022/04/14 10:53:04;;;;;;;9.32;4.60;;;;;;;;;;5047907;28;20061;-75
2022/04/14 10:55:38;;;;;;;11.35;4.93;;;;;;;;;;5036388;28;20063;-73
2022/04/14 10:58:06;;;;;;;10.38;5.28;;;;;;;;;;5038162;28;20765;-73
2022/04/14 11:00:37;;;;;;;10.63;4.68;;;;;;;;;;5040795;28;20060;-73
2022/04/14 11:03:05;;;;;;;11.25;5.15;;;;;;;;;;5042040;28;20475;-73
2022/04/14 11:05:44;;;;;;;7.80;4.20;;;;;;;;;;5040658;28;20968;-73
2022/04/14 11:08:21;;;;;;;9.95;4.78;;;;;;;;;;5040283;28;20106;-73
2022/04/14 11:10:53;;;;;;;11.65;5.75;;;;;;;;;;5040751;28;20057;-73
2022/04/14 11:13:20;;;;;;;13.02;6.15;;;;;;;;;;5036572;28;20167;-73
2022/04/14 11:15:48;;;;;;;12.35;5.90;;;;;;;;;;5039250;28;20053;-75
2022/04/14 11:18:16;;;;;;;12.63;6.45;;;;;;;;;;5037054;28;20056;-73
2022/04/14 11:21:00;;;;;;;11.43;6.35;;;;;;;;;;5036691;28;20575;-73
2022/04/14 11:23:29;;;;;;;10.50;6.18;;;;;;;;;;5037875;28;20053;-74
2022/04/14 11:26:09;;;;;;;13.63;7.22;;;;;;;;;;5031223;28;20081;-73
2022/04/14 11:28:38;;;;;;;13.48;6.22;;;;;;;;;;5038958;28;20049;-73
2022/04/14 11:31:06;;;;;;;14.25;6.30;;;;;;;;;;5035568;28;20053;-73
2022/04/14 11:33:38;;;;;;;12.25;6.97;;;;;;;;;;5031920;28;20057;-73
2022/04/14 11:36:13;;;;;;;15.98;6.10;;;;;;;;;;5033594;28;20053;-73
2022/04/14 11:38:50;;;;;;;13.05;6.53;;;;;;;;;;5041030;28;20404;-73
2022/04/14 11:41:39;;;;;;;14.00;5.50;;;;;;;;;;5043094;28;20504;-73
2022/04/14 11:44:07;;;;;;;12.27;6.05;;;;;;;;;;5042190;28;20057;-73
2022/04/14 11:46:37;;;;;;;13.00;6.97;;;;;;;;;;5040770;28;20404;-73
2022/04/14 11:49:04;;;;;;;12.30;6.30;;;;;;;;;;5046298;28;20049;-73
2022/04/14 11:51:33;;;;;;;16.85;7.53;;;;;;;;;;5043361;28;20067;-73
2022/04/14 11:54:00;;;;;;;14.73;6.90;;;;;;;;;;5043538;28;20060;-73
2022/04/14 11:56:28;;;;;;;15.80;6.13;;;;;;;;;;5037391;28;20048;-73
2022/04/14 11:58:55;;;;;;;12.93;5.90;;;;;;;;;;5043850;28;20063;-73
2022/04/14 12:01:22;;;;;;;12.27;5.93;;;;;;;;;;5038823;28;20138;-73
2022/04/14 12:03:50;;;;;;;13.13;5.97;;;;;;;;;;5033895;28;20140;-73
2022/04/14 12:06:18;;;;;;;9.23;4.90;;;;;;;;;;5038657;28;20182;-73
2022/04/14 12:08:58;;;;;;;10.55;5.25;;;;;;;;;;5044611;28;20403;-73
2022/04/14 12:11:30;;;;;;;10.77;5.13;;;;;;;;;;5045020;28;20053;-73
2022/04/14 12:13:58;;;;;;;10.95;5.22;;;;;;;;;;5044332;28;20057;-74
2022/04/14 12:16:27;;;;;;;10.73;4.75;;;;;;;;;;5038974;28;20132;-73
2022/04/14 12:18:55;;;;;;;11.18;4.30;;;;;;;;;;5042087;28;20049;-73
2022/04/14 12:21:23;;;;;;;8.57;4.43;;;;;;;;;;5037392;28;20049;-74
2022/04/14 12:23:51;;;;;;;9.98;4.53;;;;;;;;;;5041649;28;20729;-74
2022/04/14 12:26:20;;;;;;;9.07;4.32;;;;;;;;;;5040903;28;20045;-74
2022/04/14 12:28:48;;;;;;;12.00;4.75;;;;;;;;;;5035460;28;20484;-74
2022/04/14 12:31:17;;;;;;;10.43;4.85;;;;;;;;;;5044041;28;20049;-74
2022/04/14 12:33:56;;;;;;;13.50;4.28;;;;;;;;;;5040238;28;20590;-74
2022/04/14 12:36:33;;;;;;;8.77;4.68;;;;;;;;;;5039951;28;20514;-74
2022/04/14 12:39:00;;;;;;;11.20;4.65;;;;;;;;;;5037937;28;20115;-74
2022/04/14 12:41:34;;;;;;;8.00;4.13;;;;;;;;;;5038057;28;20183;-74
2022/04/14 12:44:01;;;;;;;9.82;4.40;;;;;;;;;;5042514;28;20049;-75
2022/04/14 12:46:30;;;;;;;10.13;4.35;;;;;;;;;;5042699;28;20049;-74
2022/04/14 12:49:01;;;;;;;10.00;4.43;;;;;;;;;;5043110;28;20569;-74
2022/04/14 12:51:29;;;;;;;8.82;4.63;;;;;;;;;;5060605;28;20052;-74
2022/04/14 12:53:56;;;;;;;8.20;4.18;;;;;;;;;;5037968;28;20055;-74
2022/04/14 12:56:23;;;;;;;12.35;4.50;;;;;;;;;;5038332;28;20127;-74
2022/04/14 12:59:12;;;;;;;7.47;3.75;;;;;;;;;;5042122;28;20427;-74
2022/04/14 13:01:52;;;;;;;12.20;5.05;;;;;;;;;;5035635;28;20144;-74
2022/04/14 13:04:20;;;;;;;10.45;4.43;;;;;;;;;;5047718;28;20103;-74
2022/04/14 13:06:57;;;;;;;8.00;3.60;;;;;;;;;;5034608;28;20414;-74
2022/04/14 13:09:25;;;;;;;12.73;4.72;;;;;;;;;;5043619;28;20057;-74
2022/04/14 13:11:53;;;;;;;14.90;6.35;;;;;;;;;;5044256;28;20095;-74
2022/04/14 13:14:22;;;;;;;18.25;6.10;;;;;;;;;;5043139;28;20048;-74
2022/04/14 13:16:50;;;;;;;13.23;6.60;;;;;;;;;;5036907;28;20476;-74
2022/04/14 13:19:17;;;;;;;14.32;6.25;;;;;;;;;;5046934;28;20056;-74
2022/04/14 13:21:45;;;;;;;15.15;6.63;;;;;;;;;;5044360;28;20065;-74
2022/04/14 13:24:13;;;;;;;12.80;5.93;;;;;;;;;;5038021;28;20057;-74
2022/04/14 13:26:40;;;;;;;15.68;6.82;;;;;;;;;;5044216;28;20103;-74
2022/04/14 13:29:08;;;;;;;12.93;5.82;;;;;;;;;;5042165;28;20057;-74
2022/04/14 13:31:37;;;;;;;11.02;5.43;;;;;;;;;;5033674;28;20103;-74
2022/04/14 13:34:04;;;;;;;11.82;5.65;;;;;;;;;;5043528;28;20052;-74
2022/04/14 13:36:31;;;;;;;11.65;5.43;;;;;;;;;;5038940;28;20063;-74
2022/04/14 13:38:58;;;;;;;12.13;5.82;;;;;;;;;;5037726;28;20060;-74
2022/04/14 13:41:26;;;;;;;11.50;5.38;;;;;;;;;;5044782;28;20091;-74
2022/04/14 13:43:53;;;;;;;10.65;5.28;;;;;;;;;;5036798;28;20045;-74
2022/04/14 13:46:20;;;;;;;10.40;4.78;;;;;;;;;;5035930;28;20053;-74
2022/04/14 13:48:49;;;;;;;13.82;4.70;;;;;;;;;;5045233;28;20055;-74
2022/04/14 13:51:17;;;;;;;11.73;4.00;;;;;;;;;;5043582;28;20670;-74
2022/04/14 13:53:44;;;;;;;9.02;4.00;;;;;;;;;;5038429;28;20137;-74
2022/04/14 13:56:11;;;;;;;9.35;3.72;;;;;;;;;;5045730;28;20510;-74
2022/04/14 13:58:39;;;;;;;9.52;4.05;;;;;;;;;;5037617;28;20061;-74
2022/04/14 14:01:07;;;;;;;9.32;3.95;;;;;;;;;;5043675;28;20052;-74
2022/04/14 14:03:34;;;;;;;9.13;3.85;;;;;;;;;;5039090;28;20061;-74
2022/04/14 14:06:03;;;;;;;11.43;3.78;;;;;;;;;;5040766;28;20068;-72
2022/04/14 14:08:30;;;;;;;13.35;3.28;;;;;;;;;;5044521;28;20445;-72
2022/04/14 14:10:57;;;;;;;11.02;3.75;;;;;;;;;;5039766;28;20067;-72
2022/04/14 14:13:25;;;;;;;8.13;3.25;;;;;;;;;;5046769;28;20057;-72
2022/04/14 14:15:52;;;;;;;9.65;3.85;;;;;;;;;;5047927;28;20068;-72
2022/04/14 14:18:20;;;;;;;8.40;3.50;;;;;;;;;;5038609;28;20084;-72
2022/04/14 14:20:47;;;;;;;6.35;2.70;;;;;;;;;;5038172;28;20102;-72
2022/04/14 14:23:17;;;;;;;6.32;2.90;;;;;;;;;;5046014;28;20111;-72
2022/04/14 14:25:44;;;;;;;10.20;2.97;;;;;;;;;;5037775;28;20061;-72
2022/04/14 14:28:11;;;;;;;6.82;2.70;;;;;;;;;;5043695;28;20055;-72
2022/04/14 14:30:38;;;;;;;6.25;2.20;;;;;;;;;;5037321;28;20045;-72